Time;durP1;ratioP1;P1;durP2;ratioP2;P2;SDS_P1;SDS_P2;PMS_P1;PMS_P2;Temp;Humidity;BMP_temperature;BMP_pressure;BME280_temperature;BME280_humidity;BME280_pressure;Samples;Min_cycle;Max_cycle;Signal;HPM_P1;HPM_P2
2021/11/05 00:01:06;;;;;;;41.60;26.83;;;;;;;;;;5097591;28;21005;-81
2021/11/05 00:03:33;;;;;;;44.27;27.80;;;;;;;;;;5098914;28;20450;-80
2021/11/05 00:06:00;;;;;;;45.67;31.17;;;;;;;;;;5101430;28;20453;-81
2021/11/05 00:08:28;;;;;;;47.77;30.90;;;;;;;;;;5099203;28;20461;-82
2021/11/05 00:10:55;;;;;;;45.33;29.47;;;;;;;;;;5097597;28;20811;-80
2021/11/05 00:13:22;;;;;;;44.17;28.00;;;;;;;;;;5097963;28;20964;-80
2021/11/05 00:15:49;;;;;;;44.87;30.33;;;;;;;;;;5098707;28;20482;-82
2021/11/05 00:18:17;;;;;;;51.53;31.30;;;;;;;;;;5099575;28;20447;-82
2021/11/05 00:20:44;;;;;;;43.80;30.10;;;;;;;;;;5097898;28;20461;-82
2021/11/05 00:23:13;;;;;;;50.27;33.10;;;;;;;;;;5098654;28;20860;-83
2021/11/05 00:25:40;;;;;;;48.53;30.80;;;;;;;;;;5079016;28;21035;-83
2021/11/05 00:28:07;;;;;;;42.30;28.63;;;;;;;;;;5080207;28;20464;-82
2021/11/05 00:30:34;;;;;;;46.13;31.03;;;;;;;;;;5097750;28;20478;-82
2021/11/05 00:33:01;;;;;;;50.80;32.57;;;;;;;;;;5098638;28;20487;-82
2021/11/05 00:35:30;;;;;;;57.07;33.10;;;;;;;;;;5098708;28;20452;-83
2021/11/05 00:37:57;;;;;;;61.57;35.80;;;;;;;;;;5097986;28;20455;-82
2021/11/05 00:40:25;;;;;;;62.50;37.00;;;;;;;;;;5098199;28;20476;-83
2021/11/05 00:42:52;;;;;;;54.27;33.33;;;;;;;;;;5099197;28;20577;-82
2021/11/05 00:45:19;;;;;;;65.90;37.60;;;;;;;;;;5097674;28;20454;-81
2021/11/05 00:47:46;;;;;;;54.87;33.33;;;;;;;;;;5098630;28;20442;-82
2021/11/05 00:50:13;;;;;;;70.53;38.10;;;;;;;;;;5096845;28;20477;-81
2021/11/05 00:52:42;;;;;;;70.07;35.83;;;;;;;;;;5097342;28;20446;-82
2021/11/05 00:55:10;;;;;;;67.80;34.40;;;;;;;;;;5096657;28;20463;-82
2021/11/05 00:57:37;;;;;;;72.00;36.27;;;;;;;;;;5095650;28;20451;-81
2021/11/05 01:00:05;;;;;;;62.27;35.00;;;;;;;;;;5096764;28;20478;-81
2021/11/05 01:02:32;;;;;;;70.37;36.10;;;;;;;;;;5097249;28;20993;-81
2021/11/05 01:04:59;;;;;;;58.40;34.67;;;;;;;;;;5097731;28;20547;-80
2021/11/05 01:07:26;;;;;;;66.17;36.37;;;;;;;;;;5097753;28;20447;-82
2021/11/05 01:09:55;;;;;;;65.43;35.77;;;;;;;;;;5096463;28;20469;-82
2021/11/05 01:12:22;;;;;;;62.87;36.87;;;;;;;;;;5094902;28;20959;-82
2021/11/05 01:14:50;;;;;;;64.47;36.40;;;;;;;;;;5096923;28;20450;-81
2021/11/05 01:17:17;;;;;;;70.37;38.13;;;;;;;;;;5097436;28;20559;-82
2021/11/05 01:19:44;;;;;;;65.33;36.13;;;;;;;;;;5097964;28;20486;-80
2021/11/05 01:22:12;;;;;;;62.90;34.83;;;;;;;;;;5095642;28;20483;-82
2021/11/05 01:24:39;;;;;;;63.20;37.80;;;;;;;;;;5096597;28;20447;-80
2021/11/05 01:27:08;;;;;;;65.23;36.40;;;;;;;;;;5096676;28;20457;-81
2021/11/05 01:29:35;;;;;;;56.57;32.30;;;;;;;;;;5097492;28;20486;-79
2021/11/05 01:32:02;;;;;;;64.07;35.40;;;;;;;;;;5098390;28;20850;-79
2021/11/05 01:34:30;;;;;;;63.77;34.90;;;;;;;;;;5100332;28;20453;-80
2021/11/05 01:36:57;;;;;;;60.30;31.73;;;;;;;;;;5101306;28;20541;-81
2021/11/05 01:39:24;;;;;;;58.00;34.60;;;;;;;;;;5100072;28;20467;-80
2021/11/05 01:41:51;;;;;;;56.57;33.00;;;;;;;;;;5098622;28;20493;-81
2021/11/05 01:44:22;;;;;;;56.73;34.73;;;;;;;;;;5101586;28;20442;-80
2021/11/05 01:46:49;;;;;;;55.53;30.50;;;;;;;;;;5101440;28;20443;-80
2021/11/05 01:49:17;;;;;;;52.63;30.63;;;;;;;;;;5102124;28;20472;-81
2021/11/05 01:51:44;;;;;;;49.07;31.03;;;;;;;;;;5096836;28;21011;-82
2021/11/05 01:54:13;;;;;;;57.50;31.97;;;;;;;;;;5097172;28;20478;-82
2021/11/05 01:56:41;;;;;;;49.30;30.30;;;;;;;;;;5094588;28;20460;-83
2021/11/05 01:59:08;;;;;;;53.10;31.70;;;;;;;;;;5098073;28;20473;-83
2021/11/05 02:01:36;;;;;;;55.17;31.53;;;;;;;;;;5098449;28;20581;-84
2021/11/05 02:04:04;;;;;;;52.07;30.30;;;;;;;;;;5098380;28;20542;-82
2021/11/05 02:06:31;;;;;;;50.03;30.63;;;;;;;;;;5096487;28;20457;-82
2021/11/05 02:09:00;;;;;;;54.73;31.83;;;;;;;;;;5092580;28;20486;-82
2021/11/05 02:11:27;;;;;;;43.00;27.33;;;;;;;;;;5090337;28;20957;-81
2021/11/05 02:13:56;;;;;;;57.53;32.07;;;;;;;;;;5090727;28;20447;-82
2021/11/05 02:16:24;;;;;;;47.07;29.83;;;;;;;;;;5095335;28;20447;-81
2021/11/05 02:18:53;;;;;;;56.73;33.07;;;;;;;;;;5095486;28;20497;-80
2021/11/05 02:21:23;;;;;;;51.13;29.77;;;;;;;;;;5091488;28;20451;-84
2021/11/05 02:23:51;;;;;;;53.90;30.87;;;;;;;;;;5100231;28;20514;-82
2021/11/05 02:26:19;;;;;;;50.23;30.67;;;;;;;;;;5101931;28;20469;-82
2021/11/05 02:28:46;;;;;;;51.93;30.00;;;;;;;;;;5102115;28;20474;-82
2021/11/05 02:31:13;;;;;;;44.53;27.20;;;;;;;;;;5100833;28;20513;-82
2021/11/05 02:33:40;;;;;;;46.13;29.43;;;;;;;;;;5087548;28;20439;-82
2021/11/05 02:36:07;;;;;;;47.30;27.93;;;;;;;;;;5085300;28;20445;-82
2021/11/05 02:38:35;;;;;;;48.93;29.37;;;;;;;;;;5095250;28;20444;-82
2021/11/05 02:41:03;;;;;;;51.70;30.17;;;;;;;;;;5095031;28;20442;-82
2021/11/05 02:43:30;;;;;;;55.43;32.37;;;;;;;;;;5104503;28;20474;-83
2021/11/05 02:45:57;;;;;;;46.07;27.00;;;;;;;;;;5105070;28;20446;-82
2021/11/05 02:48:27;;;;;;;49.30;27.90;;;;;;;;;;5104991;28;20459;-81
2021/11/05 02:50:54;;;;;;;48.23;28.60;;;;;;;;;;5094246;28;20826;-82
2021/11/05 02:53:21;;;;;;;58.77;32.63;;;;;;;;;;5103794;28;20532;-82
2021/11/05 02:55:48;;;;;;;45.60;29.03;;;;;;;;;;5102221;28;20447;-82
2021/11/05 02:58:17;;;;;;;44.47;27.57;;;;;;;;;;5087054;28;20454;-82
2021/11/05 03:00:45;;;;;;;47.03;28.20;;;;;;;;;;5082804;28;20463;-82
2021/11/05 03:03:12;;;;;;;43.00;27.97;;;;;;;;;;5083934;28;20479;-82
2021/11/05 03:05:40;;;;;;;51.03;32.83;;;;;;;;;;5092921;28;20447;-82
2021/11/05 03:08:07;;;;;;;42.90;28.20;;;;;;;;;;5101605;28;21005;-82
2021/11/05 03:10:35;;;;;;;42.90;27.93;;;;;;;;;;5087781;28;20695;-82
2021/11/05 03:13:02;;;;;;;43.17;25.93;;;;;;;;;;5097870;28;20835;-82
2021/11/05 03:15:30;;;;;;;41.97;26.00;;;;;;;;;;5085792;28;20455;-82
2021/11/05 03:17:59;;;;;;;42.43;26.77;;;;;;;;;;5085879;28;20458;-82
2021/11/05 03:20:26;;;;;;;36.40;24.70;;;;;;;;;;5090278;28;20472;-82
2021/11/05 03:22:53;;;;;;;36.90;24.03;;;;;;;;;;5101317;28;20482;-82
2021/11/05 03:25:21;;;;;;;39.47;26.00;;;;;;;;;;5104432;28;20440;-82
2021/11/05 03:27:48;;;;;;;46.57;26.00;;;;;;;;;;5104719;28;20456;-82
2021/11/05 03:30:18;;;;;;;40.37;26.47;;;;;;;;;;5103215;28;20466;-81
2021/11/05 03:32:47;;;;;;;46.40;28.77;;;;;;;;;;5104318;28;20452;-82
2021/11/05 03:35:15;;;;;;;40.87;26.30;;;;;;;;;;5104346;28;20446;-82
2021/11/05 03:37:43;;;;;;;43.77;25.53;;;;;;;;;;5104421;28;20453;-82
2021/11/05 03:40:11;;;;;;;43.60;25.40;;;;;;;;;;5095750;28;20463;-82
2021/11/05 03:42:38;;;;;;;42.10;25.87;;;;;;;;;;5102477;28;20484;-82
2021/11/05 03:45:06;;;;;;;48.00;26.57;;;;;;;;;;5094635;28;20462;-82
2021/11/05 03:47:34;;;;;;;47.70;29.00;;;;;;;;;;5102828;28;20455;-82
2021/11/05 03:50:02;;;;;;;46.87;27.40;;;;;;;;;;5102966;28;20512;-82
2021/11/05 03:52:29;;;;;;;48.17;28.70;;;;;;;;;;5097704;28;20438;-82
2021/11/05 03:54:56;;;;;;;44.87;27.20;;;;;;;;;;5113187;28;20449;-83
2021/11/05 03:57:24;;;;;;;50.00;28.90;;;;;;;;;;5109423;28;20452;-82
2021/11/05 03:59:51;;;;;;;44.13;27.40;;;;;;;;;;5102731;28;20871;-82
2021/11/05 04:02:18;;;;;;;58.17;30.67;;;;;;;;;;5101508;28;20863;-82
2021/11/05 04:04:45;;;;;;;49.30;27.23;;;;;;;;;;5101591;28;20442;-82
2021/11/05 04:07:13;;;;;;;50.37;27.10;;;;;;;;;;5102298;28;20449;-82
2021/11/05 04:09:40;;;;;;;48.00;27.80;;;;;;;;;;5100371;28;20465;-82
2021/11/05 04:12:08;;;;;;;48.20;28.23;;;;;;;;;;5098547;28;20450;-83
2021/11/05 04:14:35;;;;;;;52.53;30.37;;;;;;;;;;5100934;28;20460;-83
2021/11/05 04:17:02;;;;;;;57.87;29.33;;;;;;;;;;5100961;28;20828;-82
2021/11/05 04:19:29;;;;;;;73.07;33.67;;;;;;;;;;5103286;28;20474;-82
2021/11/05 04:21:57;;;;;;;57.83;29.77;;;;;;;;;;5080214;28;20564;-82
2021/11/05 04:24:25;;;;;;;60.50;32.13;;;;;;;;;;5082154;28;20441;-82
2021/11/05 04:26:52;;;;;;;52.00;30.13;;;;;;;;;;5101599;28;20457;-83
2021/11/05 04:29:19;;;;;;;62.40;30.60;;;;;;;;;;5102044;28;20482;-82
2021/11/05 04:31:46;;;;;;;65.03;31.00;;;;;;;;;;5100376;28;20450;-83
2021/11/05 04:34:13;;;;;;;65.10;30.90;;;;;;;;;;5092870;28;20462;-83
2021/11/05 04:36:40;;;;;;;59.00;29.67;;;;;;;;;;5083274;28;20456;-83
2021/11/05 04:39:10;;;;;;;66.80;30.13;;;;;;;;;;5089313;28;20464;-82
2021/11/05 04:41:38;;;;;;;62.73;28.70;;;;;;;;;;5100607;28;20458;-81
2021/11/05 04:44:05;;;;;;;55.87;28.43;;;;;;;;;;5099641;28;20489;-82
2021/11/05 04:46:32;;;;;;;72.70;32.00;;;;;;;;;;5101118;28;20450;-81
2021/11/05 04:48:59;;;;;;;68.53;32.17;;;;;;;;;;5101484;28;21011;-82
2021/11/05 04:51:27;;;;;;;58.53;27.10;;;;;;;;;;5098360;28;20462;-81
2021/11/05 04:53:54;;;;;;;60.60;30.33;;;;;;;;;;5100270;28;20448;-83
2021/11/05 04:56:21;;;;;;;64.07;29.87;;;;;;;;;;5097093;28;20456;-85
2021/11/05 04:58:49;;;;;;;57.23;27.87;;;;;;;;;;5094952;28;20462;-83
2021/11/05 05:01:16;;;;;;;53.37;27.33;;;;;;;;;;5095271;28;20808;-82
2021/11/05 05:03:44;;;;;;;56.27;29.67;;;;;;;;;;5095680;28;20500;-82
2021/11/05 05:06:11;;;;;;;48.20;25.17;;;;;;;;;;5097887;28;20475;-82
2021/11/05 05:08:39;;;;;;;57.00;24.97;;;;;;;;;;5094690;28;20450;-82
2021/11/05 05:11:06;;;;;;;59.13;27.87;;;;;;;;;;5092160;28;20450;-82
2021/11/05 05:13:33;;;;;;;54.53;26.23;;;;;;;;;;5095686;28;20988;-82
2021/11/05 05:16:02;;;;;;;55.77;25.43;;;;;;;;;;5093222;28;20472;-82
2021/11/05 05:18:29;;;;;;;54.00;25.60;;;;;;;;;;5094745;28;20964;-83
2021/11/05 05:20:56;;;;;;;54.43;26.13;;;;;;;;;;5085840;28;20443;-82
2021/11/05 05:23:23;;;;;;;58.40;29.80;;;;;;;;;;5103282;28;20485;-82
2021/11/05 05:25:51;;;;;;;63.97;29.67;;;;;;;;;;5094675;28;20467;-83
2021/11/05 05:28:19;;;;;;;66.17;29.60;;;;;;;;;;5092854;28;20462;-83
2021/11/05 05:30:47;;;;;;;64.40;30.23;;;;;;;;;;5089351;28;20446;-82
2021/11/05 05:33:15;;;;;;;61.17;30.43;;;;;;;;;;5094684;28;20869;-82
2021/11/05 05:35:42;;;;;;;64.97;28.97;;;;;;;;;;5095452;28;20477;-81
2021/11/05 05:38:09;;;;;;;64.27;29.13;;;;;;;;;;5099259;28;20456;-81
2021/11/05 05:40:36;;;;;;;62.63;29.03;;;;;;;;;;5101339;28;20465;-82
2021/11/05 05:43:03;;;;;;;57.83;29.20;;;;;;;;;;5088186;28;20478;-82
2021/11/05 05:45:30;;;;;;;59.53;30.03;;;;;;;;;;5098109;28;20452;-82
2021/11/05 05:47:57;;;;;;;58.47;29.07;;;;;;;;;;5094387;28;20453;-83
2021/11/05 05:50:26;;;;;;;51.50;25.80;;;;;;;;;;5097140;28;20478;-81
2021/11/05 05:52:53;;;;;;;53.10;26.10;;;;;;;;;;5100207;28;20748;-81
2021/11/05 05:55:24;;;;;;;56.40;27.00;;;;;;;;;;5100507;28;20447;-81
2021/11/05 05:57:51;;;;;;;46.90;26.40;;;;;;;;;;5088379;28;20454;-82
2021/11/05 06:00:18;;;;;;;55.30;27.80;;;;;;;;;;5096503;28;20541;-82
2021/11/05 06:02:46;;;;;;;53.03;27.43;;;;;;;;;;5091229;28;20477;-82
2021/11/05 06:05:14;;;;;;;50.23;26.70;;;;;;;;;;5100838;28;20840;-81
2021/11/05 06:07:42;;;;;;;55.43;26.13;;;;;;;;;;5096686;28;20477;-82
2021/11/05 06:10:10;;;;;;;53.70;26.73;;;;;;;;;;5097676;28;20477;-82
2021/11/05 06:12:37;;;;;;;50.80;25.80;;;;;;;;;;5104836;28;20452;-82
2021/11/05 06:15:05;;;;;;;49.07;25.53;;;;;;;;;;5101713;28;20454;-81
2021/11/05 06:17:33;;;;;;;58.83;27.00;;;;;;;;;;5086061;28;20458;-81
2021/11/05 06:20:00;;;;;;;51.57;25.17;;;;;;;;;;5095054;28;20487;-81
2021/11/05 06:22:27;;;;;;;54.37;26.70;;;;;;;;;;5091349;28;20968;-81
2021/11/05 06:24:57;;;;;;;48.20;24.30;;;;;;;;;;5095978;28;20474;-82
2021/11/05 06:27:24;;;;;;;52.93;24.77;;;;;;;;;;5089577;28;20522;-81
2021/11/05 06:29:51;;;;;;;56.67;25.87;;;;;;;;;;5094750;28;20490;-81
2021/11/05 06:32:23;;;;;;;50.23;23.87;;;;;;;;;;5093205;28;20447;-81
2021/11/05 06:34:51;;;;;;;61.97;29.30;;;;;;;;;;5095992;28;20439;-81
2021/11/05 06:37:19;;;;;;;57.87;29.43;;;;;;;;;;5092862;28;20451;-82
2021/11/05 06:39:46;;;;;;;54.70;24.97;;;;;;;;;;5099369;28;20833;-79
2021/11/05 06:42:20;;;;;;;57.13;27.70;;;;;;;;;;5099581;28;20455;-81
2021/11/05 06:44:47;;;;;;;69.43;29.90;;;;;;;;;;5097840;28;20478;-81
2021/11/05 06:47:14;;;;;;;59.90;26.00;;;;;;;;;;5100002;28;20443;-81
2021/11/05 06:49:41;;;;;;;70.93;30.60;;;;;;;;;;5097783;28;20822;-82
2021/11/05 06:52:08;;;;;;;81.33;33.33;;;;;;;;;;5089249;28;20442;-82
2021/11/05 06:54:38;;;;;;;68.43;30.80;;;;;;;;;;5080620;28;20439;-81
2021/11/05 06:57:05;;;;;;;79.83;32.10;;;;;;;;;;5093554;28;20997;-82
2021/11/05 06:59:34;;;;;;;66.67;30.30;;;;;;;;;;5099805;28;20482;-82
2021/11/05 07:02:01;;;;;;;59.00;27.80;;;;;;;;;;5096060;28;20481;-82
2021/11/05 07:04:28;;;;;;;68.30;29.97;;;;;;;;;;5100660;28;20857;-82
2021/11/05 07:06:56;;;;;;;64.07;27.00;;;;;;;;;;5092440;28;20488;-82
2021/11/05 07:09:23;;;;;;;63.80;28.70;;;;;;;;;;5101334;28;20478;-82
2021/11/05 07:11:50;;;;;;;73.17;31.50;;;;;;;;;;5098996;28;20493;-83
2021/11/05 07:14:17;;;;;;;57.13;28.13;;;;;;;;;;5097910;28;20480;-82
2021/11/05 07:16:46;;;;;;;59.40;29.10;;;;;;;;;;5102387;28;20458;-82
2021/11/05 07:19:13;;;;;;;54.77;26.33;;;;;;;;;;5130661;22;20474;-82
2021/11/05 07:21:40;;;;;;;54.30;25.73;;;;;;;;;;5103437;28;20539;-83
2021/11/05 07:24:08;;;;;;;56.77;28.03;;;;;;;;;;5092822;28;20510;-85
2021/11/05 07:26:38;;;;;;;46.63;23.60;;;;;;;;;;5084603;28;20453;-86
2021/11/05 07:29:07;;;;;;;56.50;25.87;;;;;;;;;;5098977;28;20881;-85
2021/11/05 07:31:35;;;;;;;45.10;22.20;;;;;;;;;;5096666;28;20540;-85
2021/11/05 07:34:03;;;;;;;54.90;25.50;;;;;;;;;;5097629;28;20444;-85
2021/11/05 07:36:30;;;;;;;49.70;22.77;;;;;;;;;;5104456;28;20450;-85
2021/11/05 07:38:57;;;;;;;57.13;25.50;;;;;;;;;;5097528;28;20466;-84
2021/11/05 07:41:27;;;;;;;46.30;21.80;;;;;;;;;;5095774;28;20474;-83
2021/11/05 07:43:56;;;;;;;42.73;21.23;;;;;;;;;;5097385;28;20508;-84
2021/11/05 07:46:26;;;;;;;48.23;24.40;;;;;;;;;;5101444;28;20457;-85
2021/11/05 07:48:53;;;;;;;63.00;27.60;;;;;;;;;;5097422;28;20479;-83
2021/11/05 07:51:29;;;;;;;50.20;24.47;;;;;;;;;;5098446;28;21025;-86
2021/11/05 07:54:08;;;;;;;56.97;24.80;;;;;;;;;;5100675;28;20509;-86
2021/11/05 07:56:35;;;;;;;54.37;23.13;;;;;;;;;;5111885;28;20502;-84
2021/11/05 07:59:06;;;;;;;54.13;24.00;;;;;;;;;;5111590;28;20524;-84
2021/11/05 08:01:33;;;;;;;47.80;23.17;;;;;;;;;;5102254;28;20524;-85
2021/11/05 08:04:00;;;;;;;47.50;21.10;;;;;;;;;;5101600;28;20485;-85
2021/11/05 08:06:32;;;;;;;53.00;22.43;;;;;;;;;;5102522;28;20549;-85
2021/11/05 08:08:59;;;;;;;49.30;23.07;;;;;;;;;;5104217;28;20550;-84
2021/11/05 08:11:29;;;;;;;56.37;24.93;;;;;;;;;;5101080;28;20538;-85
2021/11/05 08:13:56;;;;;;;57.33;27.20;;;;;;;;;;5100380;28;20427;-85
2021/11/05 08:16:23;;;;;;;55.67;23.47;;;;;;;;;;5101164;28;20537;-86
2021/11/05 08:18:51;;;;;;;54.10;24.40;;;;;;;;;;5102644;28;20447;-85
2021/11/05 08:21:19;;;;;;;60.70;25.70;;;;;;;;;;5101100;28;20472;-84
2021/11/05 08:23:47;;;;;;;55.03;24.30;;;;;;;;;;5101308;28;20484;-86
2021/11/05 08:26:14;;;;;;;56.30;27.07;;;;;;;;;;5101802;28;20476;-85
2021/11/05 08:28:41;;;;;;;60.67;25.30;;;;;;;;;;5101214;28;20461;-85
2021/11/05 08:31:11;;;;;;;61.47;26.83;;;;;;;;;;5100426;28;20458;-86
2021/11/05 08:33:38;;;;;;;56.60;24.40;;;;;;;;;;5101518;28;20859;-85
2021/11/05 08:36:06;;;;;;;69.40;27.50;;;;;;;;;;5100615;28;20461;-84
2021/11/05 08:38:34;;;;;;;62.60;25.63;;;;;;;;;;5095778;28;20526;-85
2021/11/05 08:41:02;;;;;;;67.43;27.87;;;;;;;;;;5100096;28;20471;-86
2021/11/05 08:43:31;;;;;;;68.70;29.87;;;;;;;;;;5101412;28;20534;-87
2021/11/05 08:45:58;;;;;;;58.13;28.30;;;;;;;;;;5101326;28;20830;-85
2021/11/05 08:48:26;;;;;;;50.80;24.13;;;;;;;;;;5103489;28;20542;-84
2021/11/05 08:50:53;;;;;;;48.23;24.90;;;;;;;;;;5101906;28;20898;-85
2021/11/05 08:53:21;;;;;;;55.37;25.93;;;;;;;;;;5102302;28;20518;-85
2021/11/05 08:55:48;;;;;;;55.60;23.47;;;;;;;;;;5083529;28;20542;-84
2021/11/05 08:58:18;;;;;;;50.57;23.63;;;;;;;;;;5082396;28;20458;-85
2021/11/05 09:00:46;;;;;;;48.30;24.93;;;;;;;;;;5082028;28;20470;-86
2021/11/05 09:03:13;;;;;;;46.27;22.10;;;;;;;;;;5084146;28;20444;-84
2021/11/05 09:05:40;;;;;;;45.80;23.87;;;;;;;;;;5086203;28;20487;-84
2021/11/05 09:08:08;;;;;;;46.90;24.70;;;;;;;;;;5092220;28;20458;-85
2021/11/05 09:10:35;;;;;;;55.30;27.93;;;;;;;;;;5094065;28;20510;-83
2021/11/05 09:13:04;;;;;;;54.63;25.93;;;;;;;;;;5095623;28;20459;-84
2021/11/05 09:15:33;;;;;;;54.67;25.63;;;;;;;;;;5095007;28;20486;-84
2021/11/05 09:18:01;;;;;;;56.73;25.97;;;;;;;;;;5096709;28;20514;-84
2021/11/05 09:20:29;;;;;;;51.07;24.27;;;;;;;;;;5096880;28;20467;-84
2021/11/05 09:22:57;;;;;;;43.00;21.63;;;;;;;;;;5099499;28;21177;-84
2021/11/05 09:25:24;;;;;;;43.13;20.73;;;;;;;;;;5096378;28;20988;-85
2021/11/05 09:27:51;;;;;;;41.43;21.13;;;;;;;;;;5099026;28;20431;-85
2021/11/05 09:30:19;;;;;;;47.40;22.53;;;;;;;;;;5100432;28;20542;-85
2021/11/05 09:32:48;;;;;;;49.10;24.17;;;;;;;;;;5101254;28;20455;-85
2021/11/05 09:35:15;;;;;;;42.87;22.57;;;;;;;;;;5101813;28;20441;-86
2021/11/05 09:37:44;;;;;;;45.67;22.87;;;;;;;;;;5101900;28;20453;-85
2021/11/05 09:40:13;;;;;;;47.00;24.73;;;;;;;;;;5098914;28;20554;-85
2021/11/05 09:42:42;;;;;;;44.57;23.23;;;;;;;;;;5098896;28;20445;-85
2021/11/05 09:45:09;;;;;;;43.40;22.57;;;;;;;;;;5093420;28;20487;-85
2021/11/05 09:47:36;;;;;;;41.53;22.77;;;;;;;;;;5093583;28;20454;-84
2021/11/05 09:50:05;;;;;;;49.83;24.93;;;;;;;;;;5098392;28;20472;-85
2021/11/05 09:52:32;;;;;;;46.23;22.77;;;;;;;;;;5092783;28;20510;-84
2021/11/05 09:55:02;;;;;;;45.87;22.23;;;;;;;;;;5098393;28;20447;-84
2021/11/05 09:57:29;;;;;;;41.40;21.60;;;;;;;;;;5100641;28;20565;-84
2021/11/05 09:59:57;;;;;;;38.77;22.07;;;;;;;;;;5092632;28;21002;-84
2021/11/05 10:02:25;;;;;;;47.37;24.53;;;;;;;;;;5097548;28;20451;-82
2021/11/05 10:04:52;;;;;;;37.97;20.43;;;;;;;;;;5099423;28;20503;-85
2021/11/05 10:07:20;;;;;;;40.20;22.90;;;;;;;;;;5099780;28;20459;-85
2021/11/05 10:09:52;;;;;;;44.70;22.27;;;;;;;;;;5098046;28;20843;-84
2021/11/05 10:12:20;;;;;;;47.83;24.70;;;;;;;;;;5099979;28;20533;-85
2021/11/05 10:14:53;;;;;;;53.83;21.60;;;;;;;;;;5098351;28;20448;-85
2021/11/05 10:17:21;;;;;;;40.93;22.77;;;;;;;;;;5101471;28;20442;-85
2021/11/05 10:19:49;;;;;;;40.90;24.30;;;;;;;;;;5100844;28;20473;-85
2021/11/05 10:22:34;;;;;;;40.23;22.83;;;;;;;;;;5097817;28;20459;-85
2021/11/05 10:25:15;;;;;;;44.20;25.40;;;;;;;;;;5096474;28;20566;-83
2021/11/05 10:27:44;;;;;;;43.33;23.43;;;;;;;;;;5096539;28;20442;-85
2021/11/05 10:30:11;;;;;;;39.30;22.60;;;;;;;;;;5100189;28;20469;-84
2021/11/05 10:32:40;;;;;;;39.50;21.40;;;;;;;;;;5100540;28;20486;-83
2021/11/05 10:35:12;;;;;;;46.20;23.30;;;;;;;;;;5100835;28;20449;-84
2021/11/05 10:37:41;;;;;;;39.73;21.13;;;;;;;;;;5091414;28;20542;-83
2021/11/05 10:40:10;;;;;;;35.10;20.43;;;;;;;;;;5091239;28;21084;-83
2021/11/05 10:42:38;;;;;;;36.60;20.60;;;;;;;;;;5094126;28;20459;-83
2021/11/05 10:45:18;;;;;;;36.33;20.00;;;;;;;;;;5100105;28;20490;-82
2021/11/05 10:48:07;;;;;;;37.10;21.03;;;;;;;;;;5098221;28;20448;-85
2021/11/05 10:50:36;;;;;;;37.43;21.53;;;;;;;;;;5097420;28;20464;-84
2021/11/05 10:53:06;;;;;;;32.00;19.90;;;;;;;;;;5099246;28;20448;-85
2021/11/05 10:55:39;;;;;;;39.47;23.13;;;;;;;;;;5095654;28;20449;-84
2021/11/05 10:58:07;;;;;;;32.43;20.90;;;;;;;;;;5097875;28;21159;-85
2021/11/05 11:00:37;;;;;;;33.17;19.20;;;;;;;;;;5101860;28;20464;-83
2021/11/05 11:03:12;;;;;;;31.80;18.53;;;;;;;;;;5100967;28;20448;-84
2021/11/05 11:05:42;;;;;;;31.97;19.17;;;;;;;;;;5094824;28;20595;-84
2021/11/05 11:08:11;;;;;;;29.53;20.07;;;;;;;;;;5105503;28;20519;-84
2021/11/05 11:10:39;;;;;;;32.10;19.40;;;;;;;;;;5118540;28;20915;-85
2021/11/05 11:13:26;;;;;;;32.07;19.37;;;;;;;;;;5108223;28;20813;-83
2021/11/05 11:15:55;;;;;;;28.53;16.70;;;;;;;;;;5098472;28;20536;-83
2021/11/05 11:18:22;;;;;;;25.80;16.63;;;;;;;;;;5097887;28;20458;-83
2021/11/05 11:20:49;;;;;;;26.60;17.00;;;;;;;;;;5101523;28;20478;-84
2021/11/05 11:23:17;;;;;;;28.90;16.93;;;;;;;;;;5115549;28;21129;-85
2021/11/05 11:25:45;;;;;;;24.03;16.00;;;;;;;;;;5099390;28;20481;-84
2021/11/05 11:28:12;;;;;;;24.80;16.80;;;;;;;;;;5091825;28;20452;-85
2021/11/05 11:30:39;;;;;;;27.73;16.63;;;;;;;;;;5098087;28;20832;-84
2021/11/05 11:33:09;;;;;;;25.40;16.80;;;;;;;;;;5100450;28;20464;-85
2021/11/05 11:35:36;;;;;;;26.73;18.70;;;;;;;;;;5096190;28;20451;-84
2021/11/05 11:38:03;;;;;;;29.13;18.40;;;;;;;;;;5094346;28;20454;-84
2021/11/05 11:40:30;;;;;;;28.17;18.60;;;;;;;;;;5094169;28;20474;-83
2021/11/05 11:42:57;;;;;;;32.17;18.40;;;;;;;;;;5096358;28;20450;-82
2021/11/05 11:45:24;;;;;;;26.30;17.20;;;;;;;;;;5096222;28;20491;-82
2021/11/05 11:47:55;;;;;;;26.53;18.30;;;;;;;;;;5097178;28;20446;-82
2021/11/05 11:50:26;;;;;;;27.03;16.77;;;;;;;;;;5094909;28;20472;-82
2021/11/05 11:53:00;;;;;;;27.57;16.90;;;;;;;;;;5091756;28;20472;-84
2021/11/05 11:55:27;;;;;;;28.53;18.10;;;;;;;;;;5092113;28;20477;-83
2021/11/05 11:58:14;;;;;;;26.60;16.60;;;;;;;;;;5086448;28;21025;-83
2021/11/05 12:00:42;;;;;;;27.70;17.23;;;;;;;;;;5091398;28;20470;-84
2021/11/05 12:03:11;;;;;;;34.83;17.93;;;;;;;;;;5093110;28;20466;-84
2021/11/05 12:05:45;;;;;;;28.13;18.53;;;;;;;;;;5086163;28;20485;-83
2021/11/05 12:08:26;;;;;;;34.13;20.90;;;;;;;;;;5087657;28;20446;-84
2021/11/05 12:10:55;;;;;;;27.63;17.80;;;;;;;;;;5091422;28;20460;-83
2021/11/05 12:13:41;;;;;;;27.60;17.23;;;;;;;;;;5087379;28;20457;-82
2021/11/05 12:16:18;;;;;;;24.03;16.37;;;;;;;;;;5093785;28;20988;-82
2021/11/05 12:19:01;;;;;;;28.40;18.80;;;;;;;;;;5097568;28;20454;-83
2021/11/05 12:21:32;;;;;;;26.50;19.30;;;;;;;;;;5091205;28;20480;-84
2021/11/05 12:24:14;;;;;;;29.90;18.47;;;;;;;;;;5094681;28;20505;-83
2021/11/05 12:26:43;;;;;;;28.27;18.47;;;;;;;;;;5093743;28;21007;-84
2021/11/05 12:29:10;;;;;;;34.13;20.53;;;;;;;;;;5093983;28;20494;-84
2021/11/05 12:31:40;;;;;;;25.83;16.90;;;;;;;;;;5090431;28;20458;-84
2021/11/05 12:34:25;;;;;;;24.20;17.60;;;;;;;;;;5089805;28;20459;-83
2021/11/05 12:36:55;;;;;;;28.30;18.60;;;;;;;;;;5100380;28;20480;-85
2021/11/05 12:39:29;;;;;;;24.03;17.10;;;;;;;;;;5099409;28;20461;-84
2021/11/05 12:42:00;;;;;;;24.83;17.30;;;;;;;;;;5100101;28;20521;-85
2021/11/05 12:44:29;;;;;;;26.33;19.03;;;;;;;;;;5100739;28;20459;-84
2021/11/05 12:46:56;;;;;;;24.53;16.60;;;;;;;;;;5090080;28;20462;-84
2021/11/05 12:49:24;;;;;;;22.30;14.67;;;;;;;;;;5093774;28;20845;-84
2021/11/05 12:51:52;;;;;;;25.70;15.30;;;;;;;;;;5098157;28;20540;-83
2021/11/05 12:54:22;;;;;;;20.63;12.90;;;;;;;;;;5091616;28;20452;-83
2021/11/05 12:56:52;;;;;;;17.50;12.77;;;;;;;;;;5099377;28;20445;-85
2021/11/05 12:59:20;;;;;;;20.90;13.37;;;;;;;;;;5098488;28;20453;-84
2021/11/05 13:01:54;;;;;;;16.90;12.57;;;;;;;;;;5097488;28;20460;-84
2021/11/05 13:04:22;;;;;;;17.30;13.97;;;;;;;;;;5091371;28;20458;-84
2021/11/05 13:06:54;;;;;;;271.57;123.90;;;;;;;;;;5081185;28;20483;-82
2021/11/05 13:09:24;;;;;;;26.60;17.10;;;;;;;;;;5089617;28;20999;-81
2021/11/05 13:11:55;;;;;;;18.23;12.70;;;;;;;;;;5094048;28;20886;-82
2021/11/05 13:14:34;;;;;;;17.23;11.50;;;;;;;;;;5095307;28;20471;-82
2021/11/05 13:17:01;;;;;;;21.07;11.83;;;;;;;;;;5092908;28;20972;-81
2021/11/05 13:19:28;;;;;;;16.70;11.43;;;;;;;;;;5097668;28;20494;-81
2021/11/05 13:22:01;;;;;;;19.17;11.53;;;;;;;;;;5068270;28;21002;-80
2021/11/05 13:24:30;;;;;;;16.10;10.87;;;;;;;;;;5090859;28;20450;-83
2021/11/05 13:27:04;;;;;;;17.30;9.77;;;;;;;;;;5093019;28;20508;-81
2021/11/05 13:29:31;;;;;;;16.90;11.10;;;;;;;;;;5092783;28;21019;-82
2021/11/05 13:32:09;;;;;;;14.30;9.90;;;;;;;;;;5091980;28;20452;-81
2021/11/05 13:34:37;;;;;;;22.00;10.00;;;;;;;;;;5094472;28;20461;-79
2021/11/05 13:37:04;;;;;;;12.37;8.83;;;;;;;;;;5088870;28;20462;-81
2021/11/05 13:39:34;;;;;;;13.27;8.80;;;;;;;;;;5089631;28;20470;-81
2021/11/05 13:42:09;;;;;;;17.27;9.57;;;;;;;;;;5102703;28;20482;-80
2021/11/05 13:44:38;;;;;;;21.80;10.57;;;;;;;;;;5107330;28;20472;-80
2021/11/05 13:47:13;;;;;;;15.43;9.40;;;;;;;;;;5094008;28;20874;-78
2021/11/05 13:49:40;;;;;;;15.43;7.60;;;;;;;;;;5094187;28;20483;-81
2021/11/05 13:52:08;;;;;;;13.20;8.23;;;;;;;;;;5087916;28;20573;-79
2021/11/05 13:54:42;;;;;;;13.47;8.13;;;;;;;;;;5095100;28;20457;-81
2021/11/05 13:57:09;;;;;;;12.37;7.60;;;;;;;;;;5099722;28;20433;-80
2021/11/05 13:59:37;;;;;;;12.37;6.90;;;;;;;;;;5105903;28;20470;-81
2021/11/05 14:02:05;;;;;;;11.87;7.00;;;;;;;;;;5105720;28;20454;-82
2021/11/05 14:04:32;;;;;;;12.17;6.57;;;;;;;;;;5115324;28;20432;-82
2021/11/05 14:06:59;;;;;;;10.80;6.80;;;;;;;;;;5109625;28;20490;-85
2021/11/05 14:09:27;;;;;;;12.43;6.47;;;;;;;;;;5109920;28;20518;-81
2021/11/05 14:11:56;;;;;;;13.70;6.93;;;;;;;;;;5110521;28;20461;-81
2021/11/05 14:14:24;;;;;;;10.83;5.30;;;;;;;;;;5102828;28;20520;-80
2021/11/05 14:16:52;;;;;;;11.17;6.00;;;;;;;;;;5100499;28;20449;-79
2021/11/05 14:19:21;;;;;;;12.97;6.73;;;;;;;;;;5093279;28;21208;-81
2021/11/05 14:21:58;;;;;;;13.03;7.47;;;;;;;;;;5090856;28;20541;-80
2021/11/05 14:24:25;;;;;;;10.53;5.60;;;;;;;;;;5092072;28;20904;-79
2021/11/05 14:27:07;;;;;;;14.40;7.20;;;;;;;;;;5093730;28;20557;-79